Main page
METAR-TAF:

METAR-TAF

Airports :

Panama Pacifico, Panama

latitude: 08-55N, longitude: 079-36W, elevation: 16 m

Current weather observation

The report was made 12 hours and 45 minutes ago, at 23:00 UTC
Wind 18 kt from the North/Northeast
Temperature 30°C
Humidity 62%
Pressure 1007 hPa
Visibility 10 km or more
Few clouds at a height of 1800 ft

METAR: MPPA 312300Z 02018KT 9999 FEW018 30/22 Q1007

Time: 06:45 (11:45 UTC)

Forecast

The report was made 45 minutes ago, at 11:00 UTC
Forecast valid from 01 at 12 UTC to 02 at 18 UTC
Wind 8 kt from the North
Visibility 10 km or more
Scattered clouds at a height of 1800 ft
Probability 30% :
Temporary
from 01 at 19 UTC to 01 at 21 UTC
Wind 5 kt from the South
Temporary
from 02 at 06 UTC to 02 at 08 UTC
Wind kt from the North

TAF: MPPA 011100Z 0112/0218 36008KT 9999 SCT018 PROB30 TEMPO 0119/0121 18005KT TEMPO 0206/0208 00000KT

Weather observations and forecasts of more than 4000 airports (METAR and TAF reports).

The available stations are represented by yellow and red dots on the map.

Hover mouse over dot to see the name of the station.

Then click to see weather observations and forecasts.

To change the map : click on the green buttons with a black cross to zoom in, on the green button with a dash to zoom out, or on the green arrows for adjacent maps.


METAR-TAF: